createdAt,value
2022-11-04T12:23:06.728Z,60.65
2022-11-04T12:26:15.220Z,60.69
2022-11-04T12:29:30.250Z,61.12
2022-11-04T12:32:16.621Z,60.75
2022-11-04T12:34:52.927Z,61.02
2022-11-04T12:37:36.331Z,61.57
2022-11-04T12:40:28.282Z,61.41
2022-11-04T12:43:01.169Z,60.92
2022-11-04T12:45:43.591Z,61.05
2022-11-04T12:48:27.770Z,60.69
2022-11-04T12:51:24.508Z,61.11
2022-11-04T12:54:15.849Z,60.95
2022-11-04T12:56:43.383Z,61.10
2022-11-04T12:59:27.022Z,61.38
2022-11-04T13:02:24.130Z,62.01
2022-11-04T13:04:57.389Z,61.78
2022-11-04T13:11:30.309Z,61.26
2022-11-04T13:14:21.445Z,61.29
2022-11-04T13:16:53.145Z,61.13
2022-11-04T13:19:34.111Z,61.48
2022-11-04T13:22:16.069Z,60.96
2022-11-04T13:25:12.848Z,61.55
2022-11-04T13:27:45.716Z,61.40
2022-11-04T13:30:22.037Z,60.98
2022-11-04T13:32:54.280Z,61.07
2022-11-04T13:35:55.312Z,61.73
2022-11-04T13:38:29.696Z,61.56
2022-11-04T13:41:24.813Z,61.35
2022-11-04T13:43:56.290Z,61.28
2022-11-04T13:46:33.230Z,61.65
2022-11-04T13:49:02.945Z,61.74
2022-11-04T13:51:43.298Z,61.94
2022-11-04T13:54:27.327Z,62.00
2022-11-04T13:57:08.944Z,62.10
2022-11-04T13:59:37.121Z,62.10
2022-11-04T14:02:19.670Z,62.19
2022-11-04T14:04:47.545Z,62.03
2022-11-04T14:07:18.176Z,62.22
2022-11-04T14:09:55.048Z,62.16
2022-11-04T14:12:28.226Z,62.15
2022-11-04T14:15:12.102Z,62.76
2022-11-04T14:17:39.487Z,62.69
2022-11-04T14:20:22.497Z,62.79
2022-11-04T14:22:56.785Z,62.31
2022-11-04T14:25:36.282Z,63.15
2022-11-04T14:28:09.976Z,63.36
2022-11-04T14:31:05.392Z,63.68
2022-11-04T14:33:34.598Z,62.92
2022-11-04T14:36:16.313Z,63.04
2022-11-04T14:38:45.019Z,62.41
2022-11-04T14:41:19.785Z,62.41
2022-11-04T14:43:48.762Z,62.63
2022-11-04T14:46:22.812Z,63.93
2022-11-04T14:48:56.519Z,63.56
2022-11-04T14:51:41.167Z,63.32
2022-11-04T14:54:12.686Z,63.74
2022-11-04T14:56:41.709Z,63.55
2022-11-04T14:59:23.920Z,64.03
2022-11-04T15:01:52.548Z,63.52
2022-11-04T15:04:31.106Z,64.29
2022-11-04T15:07:01.311Z,63.98
2022-11-04T15:09:35.444Z,63.83
2022-11-04T15:12:27.736Z,64.14
2022-11-04T15:14:56.211Z,63.61
2022-11-04T15:17:27.088Z,64.28
2022-11-04T15:19:57.711Z,63.89
2022-11-04T15:22:25.524Z,64.20
2022-11-04T15:24:53.214Z,64.34
2022-11-04T15:27:28.526Z,64.35
2022-11-04T15:29:58.110Z,64.01
2022-11-04T15:32:26.057Z,64.50
2022-11-04T15:34:55.308Z,63.93
2022-11-04T15:37:25.258Z,64.42
2022-11-04T15:39:56.882Z,63.83
2022-11-04T15:42:39.819Z,64.02
2022-11-04T15:45:22.587Z,64.07
2022-11-04T15:48:26.100Z,63.83
2022-11-04T15:51:18.277Z,63.87
2022-11-04T15:54:05.383Z,63.92
2022-11-04T15:56:40.546Z,63.81
2022-11-04T15:59:18.198Z,63.27
2022-11-04T16:01:52.256Z,63.59
2022-11-04T16:04:23.935Z,63.46
2022-11-04T16:07:09.461Z,63.85
2022-11-04T16:09:52.458Z,64.10
2022-11-04T16:12:38.603Z,64.05
2022-11-04T16:15:06.613Z,63.92
2022-11-04T16:17:34.387Z,64.21
2022-11-04T16:20:06.176Z,63.44
2022-11-04T16:22:38.971Z,63.72
2022-11-04T16:25:12.495Z,63.66
2022-11-04T16:27:40.128Z,63.41
2022-11-04T16:30:19.840Z,65.04
2022-11-04T16:32:54.181Z,63.69
2022-11-04T16:35:27.612Z,63.99
2022-11-04T16:37:56.589Z,63.56
2022-11-04T16:40:25.338Z,63.80
2022-11-04T16:42:53.914Z,63.75
2022-11-04T16:45:26.224Z,63.79
2022-11-04T16:47:54.880Z,63.35
2022-11-04T16:50:24.557Z,63.47
2022-11-04T16:52:52.328Z,63.26
2022-11-04T16:55:23.005Z,63.41
2022-11-04T16:57:57.891Z,63.47
2022-11-04T17:00:27.343Z,62.97
2022-11-04T17:02:55.012Z,63.22
2022-11-04T17:05:23.443Z,62.96
2022-11-04T17:07:54.528Z,63.23
2022-11-04T17:10:27.118Z,62.73
2022-11-04T17:12:55.095Z,62.91
2022-11-04T17:15:22.799Z,63.22
2022-11-04T17:17:50.568Z,62.67
2022-11-04T17:20:18.888Z,63.36
2022-11-04T17:22:47.450Z,62.64
2022-11-04T17:25:24.647Z,62.69
2022-11-04T17:27:52.301Z,62.75
2022-11-04T17:30:21.907Z,62.57
2022-11-04T17:32:50.099Z,62.80
2022-11-04T17:35:18.323Z,62.85
2022-11-04T17:37:46.870Z,62.46
2022-11-04T17:40:16.846Z,62.30
2022-11-04T17:43:08.520Z,62.69
2022-11-04T17:45:41.740Z,62.17
2022-11-04T17:48:10.380Z,62.32
2022-11-04T17:50:39.594Z,62.21
2022-11-04T17:53:07.545Z,62.02
2022-11-04T17:55:40.674Z,61.97
2022-11-04T17:58:09.444Z,62.17
2022-11-04T18:00:37.373Z,62.04
2022-11-04T18:03:08.989Z,61.93
2022-11-04T18:05:39.082Z,61.85
2022-11-04T18:08:06.837Z,62.03
2022-11-04T18:10:34.358Z,62.23
2022-11-04T18:13:02.013Z,61.94
2022-11-04T18:15:30.427Z,62.00
2022-11-04T18:17:58.000Z,61.77
2022-11-04T18:20:25.455Z,61.52
2022-11-04T18:22:53.026Z,61.96
2022-11-04T18:25:20.705Z,61.67
2022-11-04T18:27:49.084Z,61.78
2022-11-04T18:30:16.713Z,61.52
2022-11-04T18:32:57.296Z,61.67
2022-11-04T18:35:30.264Z,61.62
2022-11-04T18:37:58.070Z,61.99
2022-11-04T18:40:26.236Z,61.63
2022-11-04T18:42:54.027Z,61.70
2022-11-04T18:45:21.736Z,61.61
2022-11-04T18:47:49.860Z,61.71
2022-11-04T18:50:17.648Z,61.52
2022-11-04T18:52:45.341Z,61.98
2022-11-04T18:55:12.902Z,61.44
2022-11-04T18:57:40.575Z,61.92
2022-11-04T19:00:14.228Z,61.71
2022-11-04T19:02:44.677Z,61.77
2022-11-04T19:05:12.433Z,61.73
2022-11-04T19:07:42.099Z,61.81
2022-11-04T19:10:10.644Z,62.05
2022-11-04T19:12:59.011Z,62.11
2022-11-04T19:15:27.087Z,61.59
2022-11-04T19:17:54.879Z,61.93
2022-11-04T19:20:23.741Z,62.26
2022-11-04T19:22:51.513Z,62.01
2022-11-04T19:25:19.395Z,61.76
2022-11-04T19:28:05.233Z,62.24
2022-11-04T19:30:38.776Z,61.63
2022-11-04T19:33:06.567Z,61.67
2022-11-04T19:35:34.200Z,61.77
2022-11-04T19:38:02.549Z,62.09
2022-11-04T19:40:30.261Z,62.31
2022-11-04T19:43:09.861Z,61.97
2022-11-04T19:45:45.720Z,61.94
2022-11-04T19:48:14.001Z,62.02
2022-11-04T19:50:44.400Z,62.05
2022-11-04T19:53:12.428Z,61.88
2022-11-04T19:55:40.416Z,61.87
2022-11-04T19:58:08.561Z,61.96
2022-11-04T20:00:36.454Z,61.62
2022-11-04T20:03:04.807Z,62.04
2022-11-04T20:05:37.973Z,62.42
2022-11-04T20:08:06.666Z,62.14
2022-11-04T20:10:40.558Z,62.01
2022-11-04T20:13:33.266Z,62.14
2022-11-04T20:16:03.219Z,61.94
2022-11-04T20:18:30.773Z,62.29
2022-11-04T20:20:58.240Z,61.77
2022-11-04T20:23:25.837Z,62.21
2022-11-04T20:25:53.355Z,62.01
2022-11-04T20:28:20.996Z,62.16
2022-11-04T20:30:48.537Z,62.07
2022-11-04T20:33:16.099Z,62.21
2022-11-04T20:35:43.548Z,62.25
2022-11-04T20:38:14.265Z,62.39
2022-11-04T20:40:41.863Z,62.62
2022-11-04T20:43:09.341Z,62.30
2022-11-04T20:45:36.928Z,62.55
2022-11-04T20:48:04.929Z,62.29
2022-11-04T20:50:32.501Z,62.23
2022-11-04T20:53:00.057Z,62.06
2022-11-04T20:55:28.311Z,62.50
2022-11-04T20:57:55.987Z,62.26
2022-11-04T21:00:25.864Z,63.01
2022-11-04T21:02:53.342Z,62.81
2022-11-04T21:05:21.010Z,62.38
2022-11-04T21:07:48.524Z,62.62
2022-11-04T21:10:16.303Z,62.69
2022-11-04T21:12:43.844Z,62.31
2022-11-04T21:15:31.637Z,62.53
2022-11-04T21:18:01.636Z,62.68
2022-11-04T21:20:29.213Z,62.36
2022-11-04T21:22:56.704Z,62.51
2022-11-04T21:25:24.183Z,62.75
2022-11-04T21:27:52.446Z,62.55
2022-11-04T21:30:20.244Z,62.75
2022-11-04T21:32:47.826Z,63.00
2022-11-04T21:35:15.242Z,62.91
2022-11-04T21:37:43.218Z,63.31
2022-11-04T21:40:11.337Z,63.21
2022-11-04T21:42:39.128Z,62.97
2022-11-04T21:45:07.171Z,63.26
2022-11-04T21:47:34.612Z,63.37
2022-11-04T21:50:02.126Z,63.38
2022-11-04T21:52:30.382Z,63.10
2022-11-04T21:54:57.937Z,62.99
2022-11-04T21:57:25.567Z,63.01
2022-11-04T21:59:53.260Z,62.98
2022-11-04T22:02:20.836Z,63.26
2022-11-04T22:04:48.604Z,63.40
2022-11-04T22:07:16.089Z,63.47
2022-11-04T22:09:43.682Z,63.17
2022-11-04T22:12:11.128Z,63.05
2022-11-04T22:14:39.998Z,62.95
2022-11-04T22:17:07.684Z,62.85
2022-11-04T22:19:35.125Z,63.09
2022-11-04T22:22:02.673Z,62.91
2022-11-04T22:24:30.074Z,63.12
2022-11-04T22:26:57.876Z,63.33
2022-11-04T22:29:25.984Z,63.24
2022-11-04T22:31:53.940Z,63.10
2022-11-04T22:34:21.431Z,62.85
2022-11-04T22:36:48.973Z,63.43
2022-11-04T22:39:17.165Z,62.92
2022-11-04T22:41:46.452Z,63.00
2022-11-04T22:44:14.164Z,62.69
2022-11-04T22:46:42.083Z,63.08
2022-11-04T22:49:09.971Z,62.70
2022-11-04T22:51:37.432Z,62.85
2022-11-04T22:54:08.301Z,62.97
2022-11-04T22:56:36.790Z,63.02
2022-11-04T22:59:04.838Z,63.11
2022-11-04T23:01:34.010Z,62.44
2022-11-04T23:04:01.873Z,62.69
2022-11-04T23:06:29.459Z,62.73
2022-11-04T23:09:00.357Z,62.89
2022-11-04T23:11:48.803Z,62.32
2022-11-04T23:14:38.070Z,62.78
2022-11-04T23:17:42.535Z,62.34
2022-11-04T23:20:13.811Z,61.90
2022-11-04T23:23:00.229Z,62.35
2022-11-04T23:25:27.926Z,61.93
2022-11-04T23:28:14.706Z,61.64
2022-11-04T23:30:45.499Z,61.89
2022-11-04T23:33:15.222Z,61.47
2022-11-04T23:36:24.119Z,61.53
2022-11-04T23:38:51.607Z,61.54
2022-11-04T23:41:37.555Z,61.29
2022-11-04T23:44:04.984Z,61.02
2022-11-04T23:46:51.166Z,61.48
2022-11-04T23:49:37.372Z,60.84
2022-11-04T23:52:23.702Z,60.46
2022-11-04T23:55:09.942Z,60.38
2022-11-04T23:58:03.731Z,60.23
